MSC Lily — 3FVB9 — position and weather

sailwx.info

Track history (hours):
 
Tides and Currents Weather Stations Pressure Air Temp Water Temp Dewpoint Dewpoint Depression Visibility Wind Speed Wind Dir Waves Ship Positions

MSC Lily

Last reported at 2017-Nov-12 04:39 UTC. Time now 2017-Nov-24 09:26 UTC.
Position S 23°54' W 044°51'.
Warning: this ship's position is 12 days out of date.

Length 299 m; draft 13.2 m.

Type: Ship (hazmat cat A). MMSI: 373134000.

Date/timePositionNaut miles runAvg speedWind from/ knotsBaromVisibWave heightAir tempDewpointWater temp
2017-Nov-12 04:39S 23°54' W 044°51'212.5
2017-Nov-12 04:30S 23°55' W 044°53'712.6
2017-Nov-12 03:57S 23°58' W 044°59'1712.6
2017-Nov-12 02:39S 24°06' W 045°15'212.6
2017-Nov-12 02:29S 24°06' W 045°17'612.7
2017-Nov-12 02:00S 24°09' W 045°23'2112.1
2017-Nov-12 00:14S 24°15' W 045°46'1612.6
2017-Nov-11 23:00S 24°15' W 046°03'612.5
2017-Nov-11 22:30S 24°15' W 046°10'612.4
2017-Nov-11 21:59S 24°15' W 046°17'510.3
2017-Nov-11 21:30S 24°13' W 046°22'511.0
2017-Nov-11 21:00S 24°08' W 046°23'612.3
2017-Nov-11 20:30S 24°02' W 046°21'4 7.3
2017-Nov-11 20:00S 23°60' W 046°18'3 5.3
2017-Nov-11 19:29S 23°57' W 046°19'3 0.1
2017-Nov-10 12:41S 23°55' W 046°21'2 5.6
2017-Nov-10 12:17S 23°56' W 046°19'2 7.6
2017-Nov-10 12:00S 23°58' W 046°18'3 6.0
2017-Nov-10 11:30S 24°00' W 046°20'4 7.5
2017-Nov-10 11:00S 24°04' W 046°21'0 0.5
2017-Nov-10 10:22S 24°04' W 046°21'0 0.0
2017-Nov-10 09:58S 24°04' W 046°21'0 0.0
2017-Nov-10 09:28S 24°04' W 046°21'0 0.1
2017-Nov-10 08:58S 24°04' W 046°21'0 0.1
2017-Nov-10 08:28S 24°04' W 046°21'0 0.0
2017-Nov-10 07:55S 24°04' W 046°21'0 0.0
2017-Nov-10 07:28S 24°04' W 046°21'0 0.0
2017-Nov-10 06:58S 24°04' W 046°21'0 0.0
2017-Nov-10 06:28S 24°04' W 046°21'0 0.0
2017-Nov-10 05:58S 24°04' W 046°21'0 0.0
2017-Nov-10 05:28S 24°04' W 046°21'0 0.0
2017-Nov-10 04:58S 24°04' W 046°21'0 0.1
2017-Nov-10 04:28S 24°04' W 046°21'0 0.1
2017-Nov-10 03:58S 24°04' W 046°21'0 0.0
2017-Nov-10 03:28S 24°04' W 046°21'0 0.0
2017-Nov-10 02:58S 24°04' W 046°21'0 0.0
2017-Nov-10 02:25S 24°04' W 046°21'0 0.0
2017-Nov-10 01:55S 24°04' W 046°21'0 0.0
2017-Nov-10 01:25S 24°04' W 046°21'0 0.0
2017-Nov-10 00:55S 24°04' W 046°21'0 0.0
2017-Nov-10 00:25S 24°04' W 046°21'0 0.1
2017-Nov-09 23:58S 24°04' W 046°21'0 0.0
2017-Nov-09 23:25S 24°04' W 046°21'0 0.0
2017-Nov-09 22:55S 24°04' W 046°21'0 0.0
2017-Nov-09 22:28S 24°04' W 046°21'0 0.0
2017-Nov-09 21:49S 24°04' W 046°21'0 0.0
2017-Nov-09 21:31S 24°04' W 046°21'0 0.0
2017-Nov-09 20:58S 24°04' W 046°21'0 0.0
2017-Nov-09 20:27S 24°04' W 046°21'0 0.0
2017-Nov-09 20:00S 24°04' W 046°21'0 0.0
2017-Nov-09 19:28S 24°04' W 046°21'0 0.1
2017-Nov-09 18:58S 24°04' W 046°21'0 0.3
2017-Nov-09 18:30S 24°04' W 046°21'4 7.0
2017-Nov-09 18:01S 24°06' W 046°24'2 3.3
2017-Nov-09 17:30S 24°08' W 046°24'0 0.8
2017-Nov-09 17:01S 24°08' W 046°23'3 5.9
2017-Nov-09 16:31S 24°11' W 046°24'714.6
2017-Nov-09 16:01S 24°16' W 046°29'714.9
2017-Nov-09 15:30S 24°21' W 046°35'2 3.7
2017-Nov-09 15:00S 24°23' W 046°36'1 1.3
2017-Nov-09 14:30S 24°22' W 046°36'1 1.3
2017-Nov-09 14:00S 24°22' W 046°35'1 1.3
2017-Nov-09 13:30S 24°22' W 046°34'1 1.4
2017-Nov-09 13:00S 24°21' W 046°34'1 1.4
2017-Nov-09 12:30S 24°21' W 046°33'1 1.4
2017-Nov-09 12:00S 24°20' W 046°32'1 1.4
2017-Nov-09 11:30S 24°20' W 046°32'1 1.4
2017-Nov-09 11:00S 24°20' W 046°31'1 1.5
2017-Nov-09 10:30S 24°19' W 046°30'1 1.6
2017-Nov-09 10:00S 24°19' W 046°30'1 1.7
2017-Nov-09 09:30S 24°18' W 046°29'1 1.6
2017-Nov-09 09:00S 24°18' W 046°28'1 1.8
2017-Nov-09 08:30S 24°17' W 046°28'1 1.9
2017-Nov-09 08:00S 24°16' W 046°27'1 1.5
2017-Nov-09 07:30S 24°16' W 046°26'1 1.1
2017-Nov-09 07:00S 24°17' W 046°26'4 8.1
2017-Nov-09 06:30S 24°19' W 046°30'510.3
2017-Nov-09 06:00S 24°24' W 046°32'510.1
2017-Nov-09 05:30S 24°28' W 046°35'510.0
2017-Nov-09 05:00S 24°32' W 046°38'5 9.9
2017-Nov-09 04:30S 24°36' W 046°42'510.1
2017-Nov-09 04:00S 24°39' W 046°46'510.2
2017-Nov-09 03:30S 24°42' W 046°51'510.3
2017-Nov-09 02:58S 24°45' W 046°56'  
Track history (hours):
 
Tides and Currents Weather Stations Pressure Air Temp Water Temp Dewpoint Dewpoint Depression Visibility Wind Speed Wind Dir Waves Ship Positions

MSC Lily

Last reported at 2017-Nov-12 04:39 UTC. Time now 2017-Nov-24 09:26 UTC.
Position S 23°54' W 044°51'.
Warning: this ship's position is 12 days out of date.

Length 299 m; draft 13.2 m.

Type: Ship (hazmat cat A). MMSI: 373134000.

Date/timePositionNaut miles runAvg speedWind from/ knotsBaromVisibWave heightAir tempDewpointWater temp
2017-Nov-12 04:39S 23°54' W 044°51'212.5
2017-Nov-12 04:30S 23°55' W 044°53'712.6
2017-Nov-12 03:57S 23°58' W 044°59'1712.6
2017-Nov-12 02:39S 24°06' W 045°15'212.6
2017-Nov-12 02:29S 24°06' W 045°17'612.7
2017-Nov-12 02:00S 24°09' W 045°23'2112.1
2017-Nov-12 00:14S 24°15' W 045°46'1612.6
2017-Nov-11 23:00S 24°15' W 046°03'612.5
2017-Nov-11 22:30S 24°15' W 046°10'612.4
2017-Nov-11 21:59S 24°15' W 046°17'510.3
2017-Nov-11 21:30S 24°13' W 046°22'511.0
2017-Nov-11 21:00S 24°08' W 046°23'612.3
2017-Nov-11 20:30S 24°02' W 046°21'4 7.3
2017-Nov-11 20:00S 23°60' W 046°18'3 5.3
2017-Nov-11 19:29S 23°57' W 046°19'3 0.1
2017-Nov-10 12:41S 23°55' W 046°21'2 5.6
2017-Nov-10 12:17S 23°56' W 046°19'2 7.6
2017-Nov-10 12:00S 23°58' W 046°18'3 6.0
2017-Nov-10 11:30S 24°00' W 046°20'4 7.5
2017-Nov-10 11:00S 24°04' W 046°21'0 0.5
2017-Nov-10 10:22S 24°04' W 046°21'0 0.0
2017-Nov-10 09:58S 24°04' W 046°21'0 0.0
2017-Nov-10 09:28S 24°04' W 046°21'0 0.1
2017-Nov-10 08:58S 24°04' W 046°21'0 0.1
2017-Nov-10 08:28S 24°04' W 046°21'0 0.0
2017-Nov-10 07:55S 24°04' W 046°21'0 0.0
2017-Nov-10 07:28S 24°04' W 046°21'0 0.0
2017-Nov-10 06:58S 24°04' W 046°21'0 0.0
2017-Nov-10 06:28S 24°04' W 046°21'0 0.0
2017-Nov-10 05:58S 24°04' W 046°21'0 0.0
2017-Nov-10 05:28S 24°04' W 046°21'0 0.0
2017-Nov-10 04:58S 24°04' W 046°21'0 0.1
2017-Nov-10 04:28S 24°04' W 046°21'0 0.1
2017-Nov-10 03:58S 24°04' W 046°21'0 0.0
2017-Nov-10 03:28S 24°04' W 046°21'0 0.0
2017-Nov-10 02:58S 24°04' W 046°21'0 0.0
2017-Nov-10 02:25S 24°04' W 046°21'0 0.0
2017-Nov-10 01:55S 24°04' W 046°21'0 0.0
2017-Nov-10 01:25S 24°04' W 046°21'0 0.0
2017-Nov-10 00:55S 24°04' W 046°21'0 0.0
2017-Nov-10 00:25S 24°04' W 046°21'0 0.1
2017-Nov-09 23:58S 24°04' W 046°21'0 0.0
2017-Nov-09 23:25S 24°04' W 046°21'0 0.0
2017-Nov-09 22:55S 24°04' W 046°21'0 0.0
2017-Nov-09 22:28S 24°04' W 046°21'0 0.0
2017-Nov-09 21:49S 24°04' W 046°21'0 0.0
2017-Nov-09 21:31S 24°04' W 046°21'0 0.0
2017-Nov-09 20:58S 24°04' W 046°21'0 0.0
2017-Nov-09 20:27S 24°04' W 046°21'0 0.0
2017-Nov-09 20:00S 24°04' W 046°21'0 0.0
2017-Nov-09 19:28S 24°04' W 046°21'0 0.1
2017-Nov-09 18:58S 24°04' W 046°21'0 0.3
2017-Nov-09 18:30S 24°04' W 046°21'4 7.0
2017-Nov-09 18:01S 24°06' W 046°24'2 3.3
2017-Nov-09 17:30S 24°08' W 046°24'0 0.8
2017-Nov-09 17:01S 24°08' W 046°23'3 5.9
2017-Nov-09 16:31S 24°11' W 046°24'714.6
2017-Nov-09 16:01S 24°16' W 046°29'714.9
2017-Nov-09 15:30S 24°21' W 046°35'2 3.7
2017-Nov-09 15:00S 24°23' W 046°36'1 1.3
2017-Nov-09 14:30S 24°22' W 046°36'1 1.3
2017-Nov-09 14:00S 24°22' W 046°35'1 1.3
2017-Nov-09 13:30S 24°22' W 046°34'1 1.4
2017-Nov-09 13:00S 24°21' W 046°34'1 1.4
2017-Nov-09 12:30S 24°21' W 046°33'1 1.4
2017-Nov-09 12:00S 24°20' W 046°32'1 1.4
2017-Nov-09 11:30S 24°20' W 046°32'1 1.4
2017-Nov-09 11:00S 24°20' W 046°31'1 1.5
2017-Nov-09 10:30S 24°19' W 046°30'1 1.6
2017-Nov-09 10:00S 24°19' W 046°30'1 1.7
2017-Nov-09 09:30S 24°18' W 046°29'1 1.6
2017-Nov-09 09:00S 24°18' W 046°28'1 1.8
2017-Nov-09 08:30S 24°17' W 046°28'1 1.9
2017-Nov-09 08:00S 24°16' W 046°27'1 1.5
2017-Nov-09 07:30S 24°16' W 046°26'1 1.1
2017-Nov-09 07:00S 24°17' W 046°26'4 8.1
2017-Nov-09 06:30S 24°19' W 046°30'510.3
2017-Nov-09 06:00S 24°24' W 046°32'510.1
2017-Nov-09 05:30S 24°28' W 046°35'510.0
2017-Nov-09 05:00S 24°32' W 046°38'5 9.9
2017-Nov-09 04:30S 24°36' W 046°42'510.1
2017-Nov-09 04:00S 24°39' W 046°46'510.2
2017-Nov-09 03:30S 24°42' W 046°51'510.3
2017-Nov-09 02:58S 24°45' W 046°56'  

Dump ship's entire track history